sensor_id;sensor_type;location;lat;lon;timestamp;P1;durP1;ratioP1;P2;durP2;ratioP2
59074;SDS011;44860;53.020;6.738;2023-07-31T00:02:14;4.65;;;2.92;;
59074;SDS011;44860;53.020;6.738;2023-07-31T00:04:40;3.50;;;2.58;;
59074;SDS011;44860;53.020;6.738;2023-07-31T00:07:05;5.10;;;2.70;;
59074;SDS011;44860;53.020;6.738;2023-07-31T00:09:34;4.47;;;3.28;;
59074;SDS011;44860;53.020;6.738;2023-07-31T00:12:00;4.13;;;2.88;;
59074;SDS011;44860;53.020;6.738;2023-07-31T00:14:25;5.63;;;2.92;;
59074;SDS011;44860;53.020;6.738;2023-07-31T00:16:51;4.72;;;2.88;;
59074;SDS011;44860;53.020;6.738;2023-07-31T00:19:17;8.73;;;3.45;;
59074;SDS011;44860;53.020;6.738;2023-07-31T00:21:43;7.45;;;3.33;;
59074;SDS011;44860;53.020;6.738;2023-07-31T00:24:09;5.78;;;3.10;;
59074;SDS011;44860;53.020;6.738;2023-07-31T00:26:35;4.60;;;3.17;;
59074;SDS011;44860;53.020;6.738;2023-07-31T00:29:01;7.20;;;3.58;;
59074;SDS011;44860;53.020;6.738;2023-07-31T00:31:26;4.43;;;2.85;;
59074;SDS011;44860;53.020;6.738;2023-07-31T00:33:52;4.82;;;3.28;;
59074;SDS011;44860;53.020;6.738;2023-07-31T00:36:18;4.32;;;2.88;;
59074;SDS011;44860;53.020;6.738;2023-07-31T00:38:43;4.53;;;3.10;;
59074;SDS011;44860;53.020;6.738;2023-07-31T00:41:09;4.85;;;3.20;;
59074;SDS011;44860;53.020;6.738;2023-07-31T00:43:35;5.28;;;3.10;;
59074;SDS011;44860;53.020;6.738;2023-07-31T00:46:00;4.15;;;3.20;;
59074;SDS011;44860;53.020;6.738;2023-07-31T00:48:26;4.68;;;3.17;;
59074;SDS011;44860;53.020;6.738;2023-07-31T00:50:52;5.00;;;3.08;;
59074;SDS011;44860;53.020;6.738;2023-07-31T00:53:18;4.78;;;3.10;;
59074;SDS011;44860;53.020;6.738;2023-07-31T00:55:43;4.68;;;3.08;;
59074;SDS011;44860;53.020;6.738;2023-07-31T00:58:09;6.38;;;3.20;;
59074;SDS011;44860;53.020;6.738;2023-07-31T01:00:35;5.68;;;3.10;;
59074;SDS011;44860;53.020;6.738;2023-07-31T01:03:01;5.57;;;3.30;;
59074;SDS011;44860;53.020;6.738;2023-07-31T01:10:56;4.75;;;3.60;;
59074;SDS011;44860;53.020;6.738;2023-07-31T01:13:28;3.47;;;2.80;;
59074;SDS011;44860;53.020;6.738;2023-07-31T01:15:54;5.47;;;2.83;;
59074;SDS011;44860;53.020;6.738;2023-07-31T01:18:20;5.65;;;3.10;;
59074;SDS011;44860;53.020;6.738;2023-07-31T01:20:46;3.53;;;2.83;;
59074;SDS011;44860;53.020;6.738;2023-07-31T01:23:31;4.38;;;2.88;;
59074;SDS011;44860;53.020;6.738;2023-07-31T01:26:21;4.93;;;2.60;;
59074;SDS011;44860;53.020;6.738;2023-07-31T01:31:37;2.63;;;2.42;;
59074;SDS011;44860;53.020;6.738;2023-07-31T01:34:04;2.85;;;2.33;;
59074;SDS011;44860;53.020;6.738;2023-07-31T01:36:33;4.93;;;2.33;;
59074;SDS011;44860;53.020;6.738;2023-07-31T01:38:59;3.25;;;2.30;;
59074;SDS011;44860;53.020;6.738;2023-07-31T01:41:26;2.83;;;2.00;;
59074;SDS011;44860;53.020;6.738;2023-07-31T01:43:52;4.53;;;2.20;;
59074;SDS011;44860;53.020;6.738;2023-07-31T01:46:17;3.55;;;1.85;;
59074;SDS011;44860;53.020;6.738;2023-07-31T01:48:43;2.17;;;1.77;;
59074;SDS011;44860;53.020;6.738;2023-07-31T01:51:09;2.70;;;1.63;;
59074;SDS011;44860;53.020;6.738;2023-07-31T01:53:34;1.85;;;1.40;;
59074;SDS011;44860;53.020;6.738;2023-07-31T01:56:00;1.55;;;1.45;;
59074;SDS011;44860;53.020;6.738;2023-07-31T01:58:26;1.80;;;1.50;;
59074;SDS011;44860;53.020;6.738;2023-07-31T02:00:52;1.55;;;1.35;;
59074;SDS011;44860;53.020;6.738;2023-07-31T02:03:17;2.55;;;1.25;;
59074;SDS011;44860;53.020;6.738;2023-07-31T02:05:43;1.52;;;1.17;;
59074;SDS011;44860;53.020;6.738;2023-07-31T02:08:10;1.58;;;1.10;;
59074;SDS011;44860;53.020;6.738;2023-07-31T02:10:36;1.08;;;0.93;;
59074;SDS011;44860;53.020;6.738;2023-07-31T02:13:02;1.20;;;1.00;;
59074;SDS011;44860;53.020;6.738;2023-07-31T02:15:29;1.48;;;1.00;;
59074;SDS011;44860;53.020;6.738;2023-07-31T02:17:55;3.03;;;0.90;;
59074;SDS011;44860;53.020;6.738;2023-07-31T02:20:21;1.27;;;1.00;;
59074;SDS011;44860;53.020;6.738;2023-07-31T02:22:47;1.48;;;1.00;;
59074;SDS011;44860;53.020;6.738;2023-07-31T02:25:12;1.10;;;0.90;;
59074;SDS011;44860;53.020;6.738;2023-07-31T02:27:38;0.90;;;0.90;;
59074;SDS011;44860;53.020;6.738;2023-07-31T02:30:04;1.08;;;0.90;;
59074;SDS011;44860;53.020;6.738;2023-07-31T02:32:30;1.65;;;1.00;;
59074;SDS011;44860;53.020;6.738;2023-07-31T02:34:56;3.08;;;1.10;;
59074;SDS011;44860;53.020;6.738;2023-07-31T02:37:22;0.98;;;0.90;;
59074;SDS011;44860;53.020;6.738;2023-07-31T02:39:49;2.05;;;0.90;;
59074;SDS011;44860;53.020;6.738;2023-07-31T02:42:14;0.82;;;0.82;;
59074;SDS011;44860;53.020;6.738;2023-07-31T02:44:40;1.30;;;1.00;;
59074;SDS011;44860;53.020;6.738;2023-07-31T02:47:06;1.13;;;1.00;;
59074;SDS011;44860;53.020;6.738;2023-07-31T02:49:31;0.93;;;0.93;;
59074;SDS011;44860;53.020;6.738;2023-07-31T02:51:57;1.92;;;1.20;;
59074;SDS011;44860;53.020;6.738;2023-07-31T02:54:23;1.23;;;1.13;;
59074;SDS011;44860;53.020;6.738;2023-07-31T02:56:48;1.13;;;0.90;;
59074;SDS011;44860;53.020;6.738;2023-07-31T02:59:14;1.13;;;1.00;;
59074;SDS011;44860;53.020;6.738;2023-07-31T03:01:40;1.20;;;1.10;;
59074;SDS011;44860;53.020;6.738;2023-07-31T03:04:05;1.15;;;0.80;;
59074;SDS011;44860;53.020;6.738;2023-07-31T03:06:32;1.33;;;0.80;;
59074;SDS011;44860;53.020;6.738;2023-07-31T03:08:58;1.02;;;0.93;;
59074;SDS011;44860;53.020;6.738;2023-07-31T03:11:23;0.95;;;0.80;;
59074;SDS011;44860;53.020;6.738;2023-07-31T03:13:49;2.97;;;1.05;;
59074;SDS011;44860;53.020;6.738;2023-07-31T03:16:15;0.70;;;0.70;;
59074;SDS011;44860;53.020;6.738;2023-07-31T03:18:40;2.15;;;0.90;;
59074;SDS011;44860;53.020;6.738;2023-07-31T03:21:06;0.80;;;0.73;;
59074;SDS011;44860;53.020;6.738;2023-07-31T03:23:32;0.80;;;0.80;;
59074;SDS011;44860;53.020;6.738;2023-07-31T03:26:01;0.90;;;0.90;;
59074;SDS011;44860;53.020;6.738;2023-07-31T03:28:32;1.77;;;0.90;;
59074;SDS011;44860;53.020;6.738;2023-07-31T03:30:58;1.58;;;0.90;;
59074;SDS011;44860;53.020;6.738;2023-07-31T03:33:24;1.27;;;0.75;;
59074;SDS011;44860;53.020;6.738;2023-07-31T03:35:50;1.00;;;0.80;;
59074;SDS011;44860;53.020;6.738;2023-07-31T03:38:16;0.95;;;0.82;;
59074;SDS011;44860;53.020;6.738;2023-07-31T03:40:42;1.60;;;0.90;;
59074;SDS011;44860;53.020;6.738;2023-07-31T03:43:08;2.05;;;1.00;;
59074;SDS011;44860;53.020;6.738;2023-07-31T03:45:33;1.45;;;1.00;;
59074;SDS011;44860;53.020;6.738;2023-07-31T03:47:59;1.40;;;0.90;;
59074;SDS011;44860;53.020;6.738;2023-07-31T03:50:25;1.73;;;1.00;;
59074;SDS011;44860;53.020;6.738;2023-07-31T03:52:51;1.92;;;0.82;;
59074;SDS011;44860;53.020;6.738;2023-07-31T03:55:17;1.15;;;1.00;;
59074;SDS011;44860;53.020;6.738;2023-07-31T03:57:43;1.20;;;0.75;;
59074;SDS011;44860;53.020;6.738;2023-07-31T04:00:09;0.80;;;0.80;;
59074;SDS011;44860;53.020;6.738;2023-07-31T04:02:35;1.45;;;0.90;;
59074;SDS011;44860;53.020;6.738;2023-07-31T04:05:01;1.05;;;0.80;;
59074;SDS011;44860;53.020;6.738;2023-07-31T04:07:26;1.50;;;0.82;;
59074;SDS011;44860;53.020;6.738;2023-07-31T04:09:52;1.15;;;0.70;;
59074;SDS011;44860;53.020;6.738;2023-07-31T04:12:18;1.00;;;0.90;;
59074;SDS011;44860;53.020;6.738;2023-07-31T04:14:43;1.05;;;0.73;;
59074;SDS011;44860;53.020;6.738;2023-07-31T04:17:09;0.80;;;0.80;;
59074;SDS011;44860;53.020;6.738;2023-07-31T04:19:34;1.40;;;0.68;;
59074;SDS011;44860;53.020;6.738;2023-07-31T04:22:00;0.93;;;0.70;;
59074;SDS011;44860;53.020;6.738;2023-07-31T04:24:26;1.15;;;0.77;;
59074;SDS011;44860;53.020;6.738;2023-07-31T04:26:52;0.90;;;0.70;;
59074;SDS011;44860;53.020;6.738;2023-07-31T04:29:18;0.60;;;0.60;;
59074;SDS011;44860;53.020;6.738;2023-07-31T04:31:44;0.90;;;0.80;;
59074;SDS011;44860;53.020;6.738;2023-07-31T04:34:10;1.13;;;0.80;;
59074;SDS011;44860;53.020;6.738;2023-07-31T04:36:36;0.88;;;0.88;;
59074;SDS011;44860;53.020;6.738;2023-07-31T04:39:02;1.08;;;0.95;;
59074;SDS011;44860;53.020;6.738;2023-07-31T04:41:28;0.80;;;0.80;;
59074;SDS011;44860;53.020;6.738;2023-07-31T04:43:54;1.27;;;0.90;;
59074;SDS011;44860;53.020;6.738;2023-07-31T04:46:19;1.38;;;0.90;;
59074;SDS011;44860;53.020;6.738;2023-07-31T04:48:45;0.95;;;0.85;;
59074;SDS011;44860;53.020;6.738;2023-07-31T04:51:11;0.73;;;0.73;;
59074;SDS011;44860;53.020;6.738;2023-07-31T04:53:36;1.08;;;0.90;;
59074;SDS011;44860;53.020;6.738;2023-07-31T04:56:02;1.35;;;1.00;;
59074;SDS011;44860;53.020;6.738;2023-07-31T04:58:28;1.42;;;0.90;;
59074;SDS011;44860;53.020;6.738;2023-07-31T05:00:54;1.67;;;0.65;;
59074;SDS011;44860;53.020;6.738;2023-07-31T05:03:19;1.38;;;0.80;;
59074;SDS011;44860;53.020;6.738;2023-07-31T05:05:45;1.45;;;0.80;;
59074;SDS011;44860;53.020;6.738;2023-07-31T05:08:11;1.45;;;0.90;;
59074;SDS011;44860;53.020;6.738;2023-07-31T05:10:37;2.13;;;1.00;;
59074;SDS011;44860;53.020;6.738;2023-07-31T05:13:03;0.80;;;0.80;;
59074;SDS011;44860;53.020;6.738;2023-07-31T05:15:28;1.67;;;0.95;;
59074;SDS011;44860;53.020;6.738;2023-07-31T05:17:54;1.90;;;1.08;;
59074;SDS011;44860;53.020;6.738;2023-07-31T05:20:20;2.30;;;1.20;;
59074;SDS011;44860;53.020;6.738;2023-07-31T05:22:46;2.67;;;1.42;;
59074;SDS011;44860;53.020;6.738;2023-07-31T05:25:12;4.35;;;1.80;;
59074;SDS011;44860;53.020;6.738;2023-07-31T05:27:38;3.05;;;1.45;;
59074;SDS011;44860;53.020;6.738;2023-07-31T05:30:04;5.50;;;1.83;;
59074;SDS011;44860;53.020;6.738;2023-07-31T05:32:30;4.95;;;2.00;;
59074;SDS011;44860;53.020;6.738;2023-07-31T05:34:56;3.55;;;1.70;;
59074;SDS011;44860;53.020;6.738;2023-07-31T05:37:22;3.38;;;2.15;;
59074;SDS011;44860;53.020;6.738;2023-07-31T05:39:49;5.43;;;2.90;;
59074;SDS011;44860;53.020;6.738;2023-07-31T05:42:14;4.57;;;2.25;;
59074;SDS011;44860;53.020;6.738;2023-07-31T05:44:40;5.10;;;3.00;;
59074;SDS011;44860;53.020;6.738;2023-07-31T05:47:06;5.85;;;2.72;;
59074;SDS011;44860;53.020;6.738;2023-07-31T05:49:31;8.02;;;3.25;;
59074;SDS011;44860;53.020;6.738;2023-07-31T05:51:57;7.40;;;3.55;;
59074;SDS011;44860;53.020;6.738;2023-07-31T05:54:23;11.20;;;4.35;;
59074;SDS011;44860;53.020;6.738;2023-07-31T05:56:49;13.25;;;4.88;;
59074;SDS011;44860;53.020;6.738;2023-07-31T05:59:15;10.82;;;5.13;;
59074;SDS011;44860;53.020;6.738;2023-07-31T06:01:41;13.57;;;5.75;;
59074;SDS011;44860;53.020;6.738;2023-07-31T06:04:07;16.52;;;6.53;;
59074;SDS011;44860;53.020;6.738;2023-07-31T06:06:33;15.95;;;6.50;;
59074;SDS011;44860;53.020;6.738;2023-07-31T06:08:59;22.58;;;7.43;;
59074;SDS011;44860;53.020;6.738;2023-07-31T06:11:25;19.38;;;7.15;;
59074;SDS011;44860;53.020;6.738;2023-07-31T06:13:51;21.27;;;7.30;;
59074;SDS011;44860;53.020;6.738;2023-07-31T06:16:17;19.52;;;7.40;;
59074;SDS011;44860;53.020;6.738;2023-07-31T06:18:42;20.23;;;7.18;;
59074;SDS011;44860;53.020;6.738;2023-07-31T06:21:09;21.80;;;7.65;;
59074;SDS011;44860;53.020;6.738;2023-07-31T06:23:35;21.40;;;8.23;;
59074;SDS011;44860;53.020;6.738;2023-07-31T06:26:01;22.23;;;8.43;;
59074;SDS011;44860;53.020;6.738;2023-07-31T06:28:27;20.25;;;7.63;;
59074;SDS011;44860;53.020;6.738;2023-07-31T06:30:56;23.95;;;7.57;;
59074;SDS011;44860;53.020;6.738;2023-07-31T06:33:23;20.52;;;8.00;;
59074;SDS011;44860;53.020;6.738;2023-07-31T06:35:49;23.58;;;7.93;;
59074;SDS011;44860;53.020;6.738;2023-07-31T06:38:14;21.73;;;8.07;;
59074;SDS011;44860;53.020;6.738;2023-07-31T06:40:40;19.95;;;7.78;;
59074;SDS011;44860;53.020;6.738;2023-07-31T06:43:06;22.70;;;7.50;;
59074;SDS011;44860;53.020;6.738;2023-07-31T06:45:36;21.10;;;7.38;;
59074;SDS011;44860;53.020;6.738;2023-07-31T06:48:03;19.15;;;7.90;;
59074;SDS011;44860;53.020;6.738;2023-07-31T06:50:30;21.45;;;7.13;;
59074;SDS011;44860;53.020;6.738;2023-07-31T06:52:56;17.73;;;7.07;;
59074;SDS011;44860;53.020;6.738;2023-07-31T06:55:22;16.30;;;6.38;;
59074;SDS011;44860;53.020;6.738;2023-07-31T06:57:49;21.25;;;7.43;;
59074;SDS011;44860;53.020;6.738;2023-07-31T07:00:16;18.48;;;6.68;;
59074;SDS011;44860;53.020;6.738;2023-07-31T07:02:42;19.30;;;7.10;;
59074;SDS011;44860;53.020;6.738;2023-07-31T07:05:08;14.98;;;6.30;;
59074;SDS011;44860;53.020;6.738;2023-07-31T07:07:34;20.00;;;7.05;;
59074;SDS011;44860;53.020;6.738;2023-07-31T07:10:00;17.95;;;6.70;;
59074;SDS011;44860;53.020;6.738;2023-07-31T07:12:30;23.92;;;7.35;;
59074;SDS011;44860;53.020;6.738;2023-07-31T07:14:56;18.95;;;7.22;;
59074;SDS011;44860;53.020;6.738;2023-07-31T07:17:28;17.50;;;7.30;;
59074;SDS011;44860;53.020;6.738;2023-07-31T07:19:57;19.80;;;7.70;;
59074;SDS011;44860;53.020;6.738;2023-07-31T07:22:24;17.98;;;7.50;;
59074;SDS011;44860;53.020;6.738;2023-07-31T07:24:50;18.70;;;7.22;;
59074;SDS011;44860;53.020;6.738;2023-07-31T07:27:16;16.35;;;7.20;;
59074;SDS011;44860;53.020;6.738;2023-07-31T07:29:42;15.90;;;7.15;;
59074;SDS011;44860;53.020;6.738;2023-07-31T07:32:08;17.65;;;7.18;;
59074;SDS011;44860;53.020;6.738;2023-07-31T07:34:33;15.23;;;6.10;;
59074;SDS011;44860;53.020;6.738;2023-07-31T07:36:59;14.15;;;5.72;;
59074;SDS011;44860;53.020;6.738;2023-07-31T07:39:25;12.57;;;5.72;;
59074;SDS011;44860;53.020;6.738;2023-07-31T07:41:50;10.73;;;4.80;;
59074;SDS011;44860;53.020;6.738;2023-07-31T07:44:18;11.40;;;4.80;;
59074;SDS011;44860;53.020;6.738;2023-07-31T07:46:44;9.35;;;4.43;;
59074;SDS011;44860;53.020;6.738;2023-07-31T07:49:09;9.18;;;3.85;;
59074;SDS011;44860;53.020;6.738;2023-07-31T07:51:35;10.27;;;4.20;;
59074;SDS011;44860;53.020;6.738;2023-07-31T07:54:01;7.47;;;4.07;;
59074;SDS011;44860;53.020;6.738;2023-07-31T07:56:26;8.70;;;4.10;;
59074;SDS011;44860;53.020;6.738;2023-07-31T07:58:53;8.60;;;3.78;;
59074;SDS011;44860;53.020;6.738;2023-07-31T08:01:19;8.73;;;4.05;;
59074;SDS011;44860;53.020;6.738;2023-07-31T08:03:46;7.53;;;4.13;;
59074;SDS011;44860;53.020;6.738;2023-07-31T08:06:12;7.65;;;3.92;;
59074;SDS011;44860;53.020;6.738;2023-07-31T08:08:39;7.57;;;3.50;;
59074;SDS011;44860;53.020;6.738;2023-07-31T08:11:04;7.68;;;3.80;;
59074;SDS011;44860;53.020;6.738;2023-07-31T08:13:30;7.32;;;3.90;;
59074;SDS011;44860;53.020;6.738;2023-07-31T08:15:56;6.55;;;3.60;;
59074;SDS011;44860;53.020;6.738;2023-07-31T08:18:21;7.43;;;3.40;;
59074;SDS011;44860;53.020;6.738;2023-07-31T08:20:47;7.18;;;3.78;;
59074;SDS011;44860;53.020;6.738;2023-07-31T08:23:13;8.77;;;3.55;;
59074;SDS011;44860;53.020;6.738;2023-07-31T08:25:39;6.95;;;3.50;;
59074;SDS011;44860;53.020;6.738;2023-07-31T08:28:05;7.55;;;3.55;;
59074;SDS011;44860;53.020;6.738;2023-07-31T08:30:32;6.40;;;3.35;;
59074;SDS011;44860;53.020;6.738;2023-07-31T08:33:01;5.47;;;3.30;;
59074;SDS011;44860;53.020;6.738;2023-07-31T08:35:27;5.57;;;3.20;;
59074;SDS011;44860;53.020;6.738;2023-07-31T08:37:53;5.03;;;2.40;;
59074;SDS011;44860;53.020;6.738;2023-07-31T08:40:19;5.32;;;2.78;;
59074;SDS011;44860;53.020;6.738;2023-07-31T08:42:47;3.75;;;2.45;;
59074;SDS011;44860;53.020;6.738;2023-07-31T08:45:17;5.10;;;2.60;;
59074;SDS011;44860;53.020;6.738;2023-07-31T08:47:45;4.18;;;2.42;;
59074;SDS011;44860;53.020;6.738;2023-07-31T08:50:12;5.90;;;2.55;;
59074;SDS011;44860;53.020;6.738;2023-07-31T08:52:39;3.90;;;2.28;;
59074;SDS011;44860;53.020;6.738;2023-07-31T08:55:05;5.82;;;2.40;;
59074;SDS011;44860;53.020;6.738;2023-07-31T08:57:32;4.32;;;2.38;;
59074;SDS011;44860;53.020;6.738;2023-07-31T09:00:02;4.05;;;2.35;;
59074;SDS011;44860;53.020;6.738;2023-07-31T09:02:40;3.40;;;2.03;;
59074;SDS011;44860;53.020;6.738;2023-07-31T09:05:11;3.20;;;2.10;;
59074;SDS011;44860;53.020;6.738;2023-07-31T09:07:37;3.28;;;2.35;;
59074;SDS011;44860;53.020;6.738;2023-07-31T09:10:03;2.00;;;1.80;;
59074;SDS011;44860;53.020;6.738;2023-07-31T09:12:30;3.85;;;2.15;;
59074;SDS011;44860;53.020;6.738;2023-07-31T09:14:56;3.70;;;1.98;;
59074;SDS011;44860;53.020;6.738;2023-07-31T09:17:32;2.45;;;1.83;;
59074;SDS011;44860;53.020;6.738;2023-07-31T09:20:13;3.38;;;1.70;;
59074;SDS011;44860;53.020;6.738;2023-07-31T09:22:46;2.47;;;1.80;;
59074;SDS011;44860;53.020;6.738;2023-07-31T09:25:14;3.83;;;1.55;;
59074;SDS011;44860;53.020;6.738;2023-07-31T09:30:25;1.60;;;1.48;;
59074;SDS011;44860;53.020;6.738;2023-07-31T09:32:52;2.33;;;1.50;;
59074;SDS011;44860;53.020;6.738;2023-07-31T09:35:32;3.10;;;1.60;;
59074;SDS011;44860;53.020;6.738;2023-07-31T09:38:06;2.78;;;1.30;;
59074;SDS011;44860;53.020;6.738;2023-07-31T09:40:34;2.28;;;1.30;;
59074;SDS011;44860;53.020;6.738;2023-07-31T09:43:02;1.30;;;1.20;;
59074;SDS011;44860;53.020;6.738;2023-07-31T09:45:29;1.10;;;1.00;;
59074;SDS011;44860;53.020;6.738;2023-07-31T09:47:56;1.10;;;0.98;;
59074;SDS011;44860;53.020;6.738;2023-07-31T09:50:22;1.30;;;0.90;;
59074;SDS011;44860;53.020;6.738;2023-07-31T09:52:49;1.20;;;0.98;;
59074;SDS011;44860;53.020;6.738;2023-07-31T09:55:17;1.15;;;0.82;;
59074;SDS011;44860;53.020;6.738;2023-07-31T09:57:47;1.50;;;0.88;;
59074;SDS011;44860;53.020;6.738;2023-07-31T10:00:15;1.23;;;0.80;;
59074;SDS011;44860;53.020;6.738;2023-07-31T10:02:42;0.95;;;0.80;;
59074;SDS011;44860;53.020;6.738;2023-07-31T10:05:12;1.00;;;0.90;;
59074;SDS011;44860;53.020;6.738;2023-07-31T10:07:42;1.00;;;0.90;;
59074;SDS011;44860;53.020;6.738;2023-07-31T10:10:13;3.03;;;1.00;;
59074;SDS011;44860;53.020;6.738;2023-07-31T10:12:40;1.58;;;0.90;;
59074;SDS011;44860;53.020;6.738;2023-07-31T10:15:06;2.83;;;1.10;;
59074;SDS011;44860;53.020;6.738;2023-07-31T10:17:34;1.27;;;1.05;;
59074;SDS011;44860;53.020;6.738;2023-07-31T10:20:01;1.17;;;0.98;;
59074;SDS011;44860;53.020;6.738;2023-07-31T10:22:30;1.20;;;1.10;;
59074;SDS011;44860;53.020;6.738;2023-07-31T10:24:57;1.77;;;1.10;;
59074;SDS011;44860;53.020;6.738;2023-07-31T10:27:23;1.58;;;1.10;;
59074;SDS011;44860;53.020;6.738;2023-07-31T10:29:49;1.10;;;1.00;;
59074;SDS011;44860;53.020;6.738;2023-07-31T10:32:17;1.23;;;1.00;;
59074;SDS011;44860;53.020;6.738;2023-07-31T10:34:43;2.55;;;1.20;;
59074;SDS011;44860;53.020;6.738;2023-07-31T10:42:53;1.50;;;0.80;;
59074;SDS011;44860;53.020;6.738;2023-07-31T10:45:24;0.90;;;0.90;;
59074;SDS011;44860;53.020;6.738;2023-07-31T10:48:00;1.05;;;0.95;;
59074;SDS011;44860;53.020;6.738;2023-07-31T10:50:27;0.80;;;0.80;;
59074;SDS011;44860;53.020;6.738;2023-07-31T10:52:54;0.90;;;0.90;;
59074;SDS011;44860;53.020;6.738;2023-07-31T10:57:54;0.80;;;0.77;;
59074;SDS011;44860;53.020;6.738;2023-07-31T11:03:03;1.27;;;0.90;;
59074;SDS011;44860;53.020;6.738;2023-07-31T11:05:41;0.90;;;0.90;;
59074;SDS011;44860;53.020;6.738;2023-07-31T11:08:11;1.02;;;0.93;;
59074;SDS011;44860;53.020;6.738;2023-07-31T11:10:42;1.25;;;0.90;;
59074;SDS011;44860;53.020;6.738;2023-07-31T11:13:09;1.27;;;1.00;;
59074;SDS011;44860;53.020;6.738;2023-07-31T11:15:35;1.17;;;1.00;;
59074;SDS011;44860;53.020;6.738;2023-07-31T11:18:01;1.00;;;1.00;;
59074;SDS011;44860;53.020;6.738;2023-07-31T11:20:34;2.33;;;0.90;;
59074;SDS011;44860;53.020;6.738;2023-07-31T11:23:01;1.10;;;1.00;;
59074;SDS011;44860;53.020;6.738;2023-07-31T11:25:29;0.80;;;0.80;;
59074;SDS011;44860;53.020;6.738;2023-07-31T11:27:56;1.33;;;0.70;;
59074;SDS011;44860;53.020;6.738;2023-07-31T11:30:23;0.70;;;0.70;;
59074;SDS011;44860;53.020;6.738;2023-07-31T11:32:49;0.70;;;0.70;;
59074;SDS011;44860;53.020;6.738;2023-07-31T11:35:16;1.98;;;0.68;;
59074;SDS011;44860;53.020;6.738;2023-07-31T11:37:42;1.42;;;0.60;;
59074;SDS011;44860;53.020;6.738;2023-07-31T11:40:09;0.60;;;0.60;;
59074;SDS011;44860;53.020;6.738;2023-07-31T11:42:35;0.70;;;0.70;;
59074;SDS011;44860;53.020;6.738;2023-07-31T11:45:05;0.60;;;0.60;;
59074;SDS011;44860;53.020;6.738;2023-07-31T11:47:34;0.80;;;0.50;;
59074;SDS011;44860;53.020;6.738;2023-07-31T11:50:05;1.17;;;0.40;;
59074;SDS011;44860;53.020;6.738;2023-07-31T11:55:03;2.05;;;0.55;;
59074;SDS011;44860;53.020;6.738;2023-07-31T11:57:31;0.68;;;0.50;;
59074;SDS011;44860;53.020;6.738;2023-07-31T11:59:58;0.73;;;0.47;;
59074;SDS011;44860;53.020;6.738;2023-07-31T12:02:24;0.40;;;0.40;;
59074;SDS011;44860;53.020;6.738;2023-07-31T12:04:50;1.27;;;0.40;;
59074;SDS011;44860;53.020;6.738;2023-07-31T12:07:16;0.60;;;0.40;;
59074;SDS011;44860;53.020;6.738;2023-07-31T12:09:54;0.50;;;0.50;;
59074;SDS011;44860;53.020;6.738;2023-07-31T12:12:20;0.50;;;0.40;;
59074;SDS011;44860;53.020;6.738;2023-07-31T12:14:47;0.60;;;0.40;;
59074;SDS011;44860;53.020;6.738;2023-07-31T12:17:13;2.92;;;0.43;;
59074;SDS011;44860;53.020;6.738;2023-07-31T12:19:40;2.85;;;0.68;;
59074;SDS011;44860;53.020;6.738;2023-07-31T12:22:12;1.05;;;0.60;;
59074;SDS011;44860;53.020;6.738;2023-07-31T12:24:42;0.98;;;0.65;;
59074;SDS011;44860;53.020;6.738;2023-07-31T12:27:12;1.20;;;0.70;;
59074;SDS011;44860;53.020;6.738;2023-07-31T12:29:40;1.25;;;0.88;;
59074;SDS011;44860;53.020;6.738;2023-07-31T12:32:22;1.65;;;0.90;;
59074;SDS011;44860;53.020;6.738;2023-07-31T12:34:50;0.75;;;0.70;;
59074;SDS011;44860;53.020;6.738;2023-07-31T12:37:16;1.08;;;0.70;;
59074;SDS011;44860;53.020;6.738;2023-07-31T12:39:42;2.10;;;0.88;;
59074;SDS011;44860;53.020;6.738;2023-07-31T12:42:08;0.75;;;0.73;;
59074;SDS011;44860;53.020;6.738;2023-07-31T12:44:34;1.33;;;0.80;;
59074;SDS011;44860;53.020;6.738;2023-07-31T12:46:59;0.90;;;0.70;;
59074;SDS011;44860;53.020;6.738;2023-07-31T12:49:25;1.05;;;0.80;;
59074;SDS011;44860;53.020;6.738;2023-07-31T12:51:50;1.27;;;0.90;;
59074;SDS011;44860;53.020;6.738;2023-07-31T12:54:16;2.30;;;0.90;;
59074;SDS011;44860;53.020;6.738;2023-07-31T12:56:42;2.97;;;1.00;;
59074;SDS011;44860;53.020;6.738;2023-07-31T12:59:08;1.42;;;1.10;;
59074;SDS011;44860;53.020;6.738;2023-07-31T13:01:34;1.15;;;1.05;;
59074;SDS011;44860;53.020;6.738;2023-07-31T13:03:59;2.58;;;1.20;;
59074;SDS011;44860;53.020;6.738;2023-07-31T13:06:25;3.20;;;1.10;;
59074;SDS011;44860;53.020;6.738;2023-07-31T13:08:51;2.10;;;1.10;;
59074;SDS011;44860;53.020;6.738;2023-07-31T13:11:17;2.85;;;1.25;;
59074;SDS011;44860;53.020;6.738;2023-07-31T13:13:42;2.55;;;1.30;;
59074;SDS011;44860;53.020;6.738;2023-07-31T13:16:08;1.45;;;1.10;;
59074;SDS011;44860;53.020;6.738;2023-07-31T13:18:34;2.85;;;1.35;;
59074;SDS011;44860;53.020;6.738;2023-07-31T13:20:59;2.75;;;1.33;;
59074;SDS011;44860;53.020;6.738;2023-07-31T13:23:25;2.75;;;1.65;;
59074;SDS011;44860;53.020;6.738;2023-07-31T13:25:51;3.20;;;1.50;;
59074;SDS011;44860;53.020;6.738;2023-07-31T13:28:16;2.95;;;1.52;;
59074;SDS011;44860;53.020;6.738;2023-07-31T13:30:42;4.30;;;1.95;;
59074;SDS011;44860;53.020;6.738;2023-07-31T13:33:08;4.53;;;2.22;;
59074;SDS011;44860;53.020;6.738;2023-07-31T13:35:33;3.78;;;2.25;;
59074;SDS011;44860;53.020;6.738;2023-07-31T13:37:59;4.78;;;2.20;;
59074;SDS011;44860;53.020;6.738;2023-07-31T13:40:25;4.93;;;2.25;;
59074;SDS011;44860;53.020;6.738;2023-07-31T13:42:50;5.85;;;2.15;;
59074;SDS011;44860;53.020;6.738;2023-07-31T13:45:16;4.78;;;2.33;;
59074;SDS011;44860;53.020;6.738;2023-07-31T13:47:42;3.63;;;2.05;;
59074;SDS011;44860;53.020;6.738;2023-07-31T13:50:07;6.45;;;2.47;;
59074;SDS011;44860;53.020;6.738;2023-07-31T13:52:33;4.90;;;2.63;;
59074;SDS011;44860;53.020;6.738;2023-07-31T13:54:59;6.57;;;2.65;;
59074;SDS011;44860;53.020;6.738;2023-07-31T13:57:25;6.95;;;2.80;;
59074;SDS011;44860;53.020;6.738;2023-07-31T13:59:50;8.68;;;3.08;;
59074;SDS011;44860;53.020;6.738;2023-07-31T14:02:16;8.80;;;3.40;;
59074;SDS011;44860;53.020;6.738;2023-07-31T14:04:42;7.90;;;3.38;;
59074;SDS011;44860;53.020;6.738;2023-07-31T14:07:07;7.68;;;3.33;;
59074;SDS011;44860;53.020;6.738;2023-07-31T14:09:33;7.18;;;2.92;;
59074;SDS011;44860;53.020;6.738;2023-07-31T14:11:59;9.20;;;3.25;;
59074;SDS011;44860;53.020;6.738;2023-07-31T14:14:24;7.20;;;3.00;;
59074;SDS011;44860;53.020;6.738;2023-07-31T14:16:50;7.72;;;3.20;;
59074;SDS011;44860;53.020;6.738;2023-07-31T14:19:16;8.40;;;3.50;;
59074;SDS011;44860;53.020;6.738;2023-07-31T14:21:41;9.27;;;3.63;;
59074;SDS011;44860;53.020;6.738;2023-07-31T14:24:07;10.13;;;3.30;;
59074;SDS011;44860;53.020;6.738;2023-07-31T14:26:33;8.27;;;3.85;;
59074;SDS011;44860;53.020;6.738;2023-07-31T14:28:58;8.43;;;3.08;;
59074;SDS011;44860;53.020;6.738;2023-07-31T14:31:24;9.35;;;3.38;;
59074;SDS011;44860;53.020;6.738;2023-07-31T14:33:50;10.25;;;3.20;;
59074;SDS011;44860;53.020;6.738;2023-07-31T14:36:15;9.00;;;3.15;;
59074;SDS011;44860;53.020;6.738;2023-07-31T14:38:41;8.68;;;3.45;;
59074;SDS011;44860;53.020;6.738;2023-07-31T14:41:07;10.27;;;3.90;;
59074;SDS011;44860;53.020;6.738;2023-07-31T14:43:32;10.00;;;3.97;;
59074;SDS011;44860;53.020;6.738;2023-07-31T14:45:58;9.80;;;3.55;;
59074;SDS011;44860;53.020;6.738;2023-07-31T14:48:25;9.85;;;4.20;;
59074;SDS011;44860;53.020;6.738;2023-07-31T14:50:52;8.27;;;3.50;;
59074;SDS011;44860;53.020;6.738;2023-07-31T14:53:18;10.60;;;4.00;;
59074;SDS011;44860;53.020;6.738;2023-07-31T14:55:43;8.10;;;3.58;;
59074;SDS011;44860;53.020;6.738;2023-07-31T14:58:09;9.60;;;3.50;;
59074;SDS011;44860;53.020;6.738;2023-07-31T15:00:36;9.70;;;3.60;;
59074;SDS011;44860;53.020;6.738;2023-07-31T15:03:02;8.75;;;3.83;;
59074;SDS011;44860;53.020;6.738;2023-07-31T15:05:28;7.97;;;3.63;;
59074;SDS011;44860;53.020;6.738;2023-07-31T15:07:53;9.85;;;4.13;;